Bay De Verde, Canada
Current Conditions -  °F | °C
As of 1:33 AM on Saturday 25 Oct 2014 (Local Time) from CYYT Reporting Station
Drizzle Drizzle  
Wind Chill: 50°   Ceiling: 200
Heat Index: 50°   Visibility: 0.5mi
Dew Point: 50°   Wind: 6mph
Humidity: 100%   Direction: 260°W
Pressure: 29.52"   Gusts: NA
Location:  48.07°N, 52.93°W
Report Text: CYYT 250333Z 26005KT 1/2SM -DZ FG VV002 10/10 A2952 RMK FG8 SLP001
Loading
Personal Weather Stations






























Interactive Weather Map
Tropical Storm Tracking
New forecast layout! Learn more

10-Day Weather Forecast

Advertisements
Track Severe Weather on mobile